createdAt,value
2018-02-27T00:02:27.638Z,62.30
2018-02-27T00:04:55.423Z,62.20
2018-02-27T00:07:23.195Z,61.80
2018-02-27T00:09:51.013Z,62.30
2018-02-27T00:12:18.880Z,62.00
2018-02-27T00:14:46.705Z,62.30
2018-02-27T00:17:14.811Z,62.50
2018-02-27T00:19:42.630Z,63.50
2018-02-27T00:22:10.430Z,62.10
2018-02-27T00:24:39.071Z,63.40
2018-02-27T00:27:06.855Z,63.30
2018-02-27T00:29:35.967Z,63.60
2018-02-27T00:32:03.801Z,63.50
2018-02-27T00:34:31.617Z,63.50
2018-02-27T00:36:59.621Z,62.90
2018-02-27T00:39:27.448Z,61.80
2018-02-27T00:41:55.250Z,61.70
2018-02-27T00:44:23.025Z,62.20
2018-02-27T00:46:52.077Z,62.70
2018-02-27T00:49:19.838Z,62.00
2018-02-27T00:51:47.601Z,60.10
2018-02-27T00:54:15.422Z,58.80
2018-02-27T00:56:43.954Z,59.10
2018-02-27T00:59:11.722Z,59.10
2018-02-27T01:01:39.569Z,58.60
2018-02-27T01:04:07.332Z,59.20
2018-02-27T01:06:35.094Z,59.50
2018-02-27T01:09:02.933Z,59.90
2018-02-27T01:11:30.714Z,60.30
2018-02-27T01:13:58.473Z,58.00
2018-02-27T01:19:02.442Z,54.70
2018-02-27T01:21:30.302Z,54.90
2018-02-27T01:23:58.842Z,57.10
2018-02-27T01:26:26.612Z,57.00
2018-02-27T01:28:54.468Z,56.20
2018-02-27T01:31:22.261Z,55.60
2018-02-27T01:33:50.039Z,56.30
2018-02-27T01:36:18.630Z,57.50
2018-02-27T01:38:47.166Z,58.10
2018-02-27T01:41:14.943Z,58.10
2018-02-27T01:43:42.757Z,59.00
2018-02-27T01:46:10.584Z,59.80
2018-02-27T01:48:39.120Z,61.80
2018-02-27T01:51:15.006Z,61.60
2018-02-27T01:53:42.780Z,63.30
2018-02-27T01:56:11.341Z,65.40
2018-02-27T01:58:39.511Z,65.40
2018-02-27T02:01:07.358Z,65.70
2018-02-27T02:03:35.117Z,66.20
2018-02-27T02:06:02.932Z,67.40
2018-02-27T02:08:31.478Z,69.40
2018-02-27T02:10:59.303Z,69.40
2018-02-27T02:13:27.211Z,70.00
2018-02-27T02:15:55.014Z,69.90
2018-02-27T02:18:22.794Z,71.20
2018-02-27T02:20:50.623Z,70.70
2018-02-27T02:23:19.157Z,73.70
2018-02-27T02:25:47.013Z,73.70
2018-02-27T02:28:14.866Z,72.90
2018-02-27T02:30:42.700Z,72.50
2018-02-27T02:33:11.270Z,72.30
2018-02-27T02:35:39.868Z,72.50
2018-02-27T02:38:07.714Z,72.50
2018-02-27T02:40:35.455Z,72.80
2018-02-27T02:43:03.538Z,72.40
2018-02-27T02:45:32.100Z,72.80
2018-02-27T02:47:59.874Z,72.80
2018-02-27T02:50:27.717Z,72.80
2018-02-27T02:52:55.487Z,73.10
2018-02-27T02:55:23.253Z,73.40
2018-02-27T02:57:51.073Z,74.20
2018-02-27T03:00:18.848Z,74.70
2018-02-27T03:02:46.610Z,74.60
2018-02-27T03:05:14.458Z,74.20
2018-02-27T03:07:42.879Z,74.30
2018-02-27T03:10:10.668Z,73.50
2018-02-27T03:12:39.406Z,72.50
2018-02-27T03:15:07.342Z,72.50
2018-02-27T03:17:35.136Z,73.20
2018-02-27T03:20:02.973Z,73.50
2018-02-27T03:22:30.790Z,73.80
2018-02-27T03:24:58.549Z,73.90
2018-02-27T03:27:26.372Z,74.00
2018-02-27T03:29:54.145Z,74.00
2018-02-27T03:32:22.719Z,74.00
2018-02-27T03:34:50.563Z,74.00
2018-02-27T03:37:18.400Z,74.20
2018-02-27T03:39:46.200Z,75.10
2018-02-27T03:42:14.276Z,75.50
2018-02-27T03:44:42.069Z,76.40
2018-02-27T03:47:09.845Z,76.40
2018-02-27T03:49:37.879Z,75.80
2018-02-27T03:52:05.645Z,75.60
2018-02-27T03:54:33.409Z,76.20
2018-02-27T03:57:01.229Z,76.40
2018-02-27T03:59:29.029Z,75.80
2018-02-27T04:01:57.335Z,77.00
2018-02-27T04:04:25.248Z,77.10
2018-02-27T04:06:53.365Z,76.50
2018-02-27T04:09:21.211Z,76.80
2018-02-27T04:11:49.070Z,76.50
2018-02-27T04:14:16.850Z,76.60
2018-02-27T04:16:44.686Z,76.90
2018-02-27T04:19:12.549Z,77.20
2018-02-27T04:21:40.646Z,77.40
2018-02-27T04:24:08.462Z,76.80
2018-02-27T04:26:36.293Z,75.70
2018-02-27T04:29:04.854Z,76.60
2018-02-27T04:31:32.628Z,76.60
2018-02-27T04:34:01.281Z,77.00
2018-02-27T04:36:29.051Z,77.00
2018-02-27T04:38:56.839Z,77.20
2018-02-27T04:41:25.424Z,77.60
2018-02-27T04:43:55.106Z,77.90
2018-02-27T04:46:23.657Z,76.00
2018-02-27T04:48:51.475Z,76.00
2018-02-27T04:51:20.028Z,76.60
2018-02-27T04:53:47.803Z,76.60
2018-02-27T04:56:15.691Z,76.50
2018-02-27T04:58:43.525Z,76.80
2018-02-27T05:01:11.526Z,76.60
2018-02-27T05:03:39.351Z,76.30
2018-02-27T05:06:07.114Z,75.60
2018-02-27T05:08:35.177Z,75.30
2018-02-27T05:11:03.866Z,75.70
2018-02-27T05:13:31.754Z,75.60
2018-02-27T05:15:59.839Z,75.10
2018-02-27T05:18:28.533Z,75.40
2018-02-27T05:20:56.354Z,75.30
2018-02-27T05:23:24.896Z,75.90
2018-02-27T05:25:52.750Z,75.10
2018-02-27T05:28:20.545Z,75.60
2018-02-27T05:30:48.311Z,76.60
2018-02-27T05:33:16.375Z,78.40
2018-02-27T05:35:44.158Z,78.90
2018-02-27T05:38:12.472Z,79.00
2018-02-27T05:40:40.313Z,79.70
2018-02-27T05:43:08.845Z,79.60
2018-02-27T05:45:37.523Z,79.60
2018-02-27T05:48:05.363Z,81.00
2018-02-27T05:50:33.136Z,81.20
2018-02-27T05:53:00.991Z,80.90
2018-02-27T05:55:28.832Z,80.20
2018-02-27T05:57:56.656Z,79.40
2018-02-27T06:00:24.576Z,79.40
2018-02-27T06:02:52.398Z,79.00
2018-02-27T06:05:20.960Z,79.40
2018-02-27T06:07:48.804Z,79.40
2018-02-27T06:10:16.622Z,79.40
2018-02-27T06:12:45.177Z,76.40
2018-02-27T06:15:12.973Z,76.30
2018-02-27T06:17:41.606Z,75.50
2018-02-27T06:20:09.393Z,75.50
2018-02-27T06:22:37.775Z,75.20
2018-02-27T06:25:06.379Z,72.20
2018-02-27T06:27:34.166Z,71.30
2018-02-27T06:30:01.946Z,69.40
2018-02-27T06:32:29.779Z,58.40
2018-02-27T06:34:57.570Z,54.60
2018-02-27T06:37:25.343Z,54.00
2018-02-27T06:39:53.199Z,56.00
2018-02-27T06:42:20.966Z,57.60
2018-02-27T06:44:48.755Z,58.70
2018-02-27T06:47:16.602Z,54.40
2018-02-27T06:49:45.191Z,47.50
2018-02-27T06:52:13.061Z,47.50
2018-02-27T06:54:40.933Z,47.20
2018-02-27T06:57:10.347Z,49.00
2018-02-27T06:59:38.889Z,44.10
2018-02-27T07:02:06.766Z,44.10
2018-02-27T07:04:34.538Z,41.60
2018-02-27T07:07:03.149Z,38.30
2018-02-27T07:09:30.978Z,38.10
2018-02-27T07:11:58.741Z,36.40
2018-02-27T07:14:26.517Z,36.00
2018-02-27T07:16:54.364Z,35.60
2018-02-27T07:19:22.134Z,34.80
2018-02-27T07:21:50.704Z,34.80
2018-02-27T07:24:19.306Z,33.10
2018-02-27T07:26:47.847Z,33.50
2018-02-27T07:29:15.754Z,33.50
2018-02-27T07:31:43.589Z,32.80
2018-02-27T07:34:11.362Z,30.60
2018-02-27T07:36:39.170Z,29.00
2018-02-27T07:39:06.993Z,28.80
2018-02-27T07:41:35.527Z,26.50
2018-02-27T07:44:03.302Z,26.50
2018-02-27T07:46:31.133Z,27.10
2018-02-27T07:48:58.901Z,27.10
2018-02-27T07:51:26.670Z,27.30
2018-02-27T07:53:54.485Z,26.80
2018-02-27T07:56:23.011Z,25.50
2018-02-27T07:58:50.774Z,25.30
2018-02-27T08:01:18.590Z,24.00
2018-02-27T08:03:47.122Z,25.20
2018-02-27T08:06:14.899Z,25.20
2018-02-27T08:08:42.740Z,24.30
2018-02-27T08:11:10.516Z,23.50
2018-02-27T08:13:38.291Z,21.80
2018-02-27T08:16:06.114Z,21.80
2018-02-27T08:18:33.877Z,23.60
2018-02-27T08:21:01.638Z,24.40
2018-02-27T08:23:29.472Z,25.00
2018-02-27T08:25:58.010Z,25.30
2018-02-27T08:28:25.778Z,25.30
2018-02-27T08:30:53.606Z,23.90
2018-02-27T08:33:21.371Z,24.10
2018-02-27T08:35:49.177Z,24.90
2018-02-27T08:38:17.048Z,24.30
2018-02-27T08:40:44.835Z,24.20
2018-02-27T08:43:12.622Z,23.10
2018-02-27T08:45:40.463Z,22.10
2018-02-27T08:48:08.987Z,22.70
2018-02-27T08:50:36.759Z,22.60
2018-02-27T08:53:04.586Z,23.90
2018-02-27T08:55:32.354Z,28.70
2018-02-27T08:58:00.123Z,28.10
2018-02-27T09:00:27.951Z,26.70
2018-02-27T09:02:56.486Z,27.80
2018-02-27T09:05:24.246Z,27.80
2018-02-27T09:07:52.078Z,30.00
2018-02-27T09:10:19.845Z,31.40
2018-02-27T09:12:47.613Z,28.40
2018-02-27T09:15:15.428Z,24.50
2018-02-27T09:17:43.285Z,21.30
2018-02-27T09:20:11.091Z,21.90
2018-02-27T09:22:38.915Z,22.90
2018-02-27T09:25:06.687Z,26.50
2018-02-27T09:27:35.211Z,31.30
2018-02-27T09:30:03.047Z,31.20
2018-02-27T09:32:30.821Z,31.10
2018-02-27T09:34:58.600Z,32.10
2018-02-27T09:37:26.439Z,33.60
2018-02-27T09:39:54.209Z,33.40
2018-02-27T09:42:21.972Z,33.80
2018-02-27T09:44:49.818Z,32.60
2018-02-27T09:47:17.593Z,32.30
2018-02-27T09:49:45.376Z,32.30
2018-02-27T09:52:13.209Z,32.30
2018-02-27T09:54:40.981Z,32.00
2018-02-27T09:57:08.746Z,31.80
2018-02-27T09:59:36.606Z,32.50
2018-02-27T10:02:04.370Z,32.20
2018-02-27T10:04:32.143Z,32.40
2018-02-27T10:06:59.977Z,32.80
2018-02-27T10:09:28.506Z,33.70
2018-02-27T10:11:56.265Z,33.70
2018-02-27T10:14:24.082Z,32.70
2018-02-27T10:16:52.609Z,32.90
2018-02-27T10:19:20.389Z,32.90
2018-02-27T10:21:48.223Z,33.90
2018-02-27T10:24:15.990Z,33.90
2018-02-27T10:26:43.766Z,32.90
2018-02-27T10:29:11.613Z,32.80
2018-02-27T10:31:39.390Z,33.60
2018-02-27T10:34:07.182Z,32.90
2018-02-27T10:36:35.756Z,32.10
2018-02-27T10:39:03.568Z,32.10
2018-02-27T10:41:31.334Z,32.10
2018-02-27T10:43:59.181Z,31.70
2018-02-27T10:46:27.021Z,30.60
2018-02-27T10:48:55.581Z,31.30
2018-02-27T10:51:23.401Z,31.30
2018-02-27T10:53:51.164Z,30.50
2018-02-27T10:56:18.939Z,31.30
2018-02-27T10:58:46.961Z,30.70
2018-02-27T11:01:20.454Z,30.20
2018-02-27T11:03:49.034Z,30.80
2018-02-27T11:06:17.569Z,31.10
2018-02-27T11:08:45.360Z,31.20
2018-02-27T11:11:13.189Z,30.90
2018-02-27T11:13:40.963Z,30.20
2018-02-27T11:16:08.738Z,29.60
2018-02-27T11:18:36.558Z,29.60
2018-02-27T11:21:04.318Z,29.80
2018-02-27T11:23:32.086Z,29.90
2018-02-27T11:25:59.907Z,30.30
2018-02-27T11:28:28.452Z,30.30
2018-02-27T11:30:56.214Z,30.30
2018-02-27T11:33:24.038Z,30.90
2018-02-27T11:35:51.808Z,30.40
2018-02-27T11:38:19.575Z,30.50
2018-02-27T11:40:47.399Z,29.50
2018-02-27T11:43:15.935Z,29.10
2018-02-27T11:45:43.703Z,29.00
2018-02-27T11:48:11.532Z,29.30
2018-02-27T11:50:39.309Z,29.00
2018-02-27T11:53:07.088Z,29.30
2018-02-27T11:55:34.906Z,29.50
2018-02-27T11:58:02.690Z,29.80
2018-02-27T12:00:30.471Z,29.50
2018-02-27T12:02:58.299Z,29.20
2018-02-27T12:05:26.072Z,29.40
2018-02-27T12:07:53.830Z,29.30
2018-02-27T12:10:21.653Z,29.00
2018-02-27T12:12:49.429Z,28.90
2018-02-27T12:15:17.958Z,29.20
2018-02-27T12:17:45.779Z,29.30
2018-02-27T12:20:14.310Z,29.30
2018-02-27T12:22:42.079Z,29.30
2018-02-27T12:25:09.900Z,29.50
2018-02-27T12:27:37.663Z,29.40
2018-02-27T12:30:05.431Z,29.10
2018-02-27T12:32:33.266Z,28.90
2018-02-27T12:35:01.823Z,28.60
2018-02-27T12:37:29.602Z,28.60
2018-02-27T12:39:58.229Z,28.20
2018-02-27T12:42:26.013Z,28.20
2018-02-27T12:44:53.796Z,28.30
2018-02-27T12:47:22.399Z,28.20
2018-02-27T12:49:50.942Z,28.20
2018-02-27T12:52:18.713Z,28.20
2018-02-27T12:54:46.535Z,28.20
2018-02-27T12:57:14.300Z,27.80
2018-02-27T12:59:42.089Z,28.00
2018-02-27T13:02:10.212Z,28.00
2018-02-27T13:04:38.002Z,27.80
2018-02-27T13:07:05.785Z,27.40
2018-02-27T13:09:33.614Z,28.00
2018-02-27T13:12:01.395Z,28.00
2018-02-27T13:14:29.162Z,28.00
2018-02-27T13:16:56.989Z,28.00
2018-02-27T13:19:24.754Z,28.10
2018-02-27T13:21:52.526Z,28.20
2018-02-27T13:24:20.395Z,27.80
2018-02-27T13:26:48.163Z,28.50
2018-02-27T13:29:15.928Z,27.60
2018-02-27T13:31:43.745Z,27.60
2018-02-27T13:34:12.287Z,27.20
2018-02-27T13:36:40.086Z,27.20
2018-02-27T13:39:08.661Z,27.70
2018-02-27T13:41:37.218Z,27.60
2018-02-27T13:44:04.979Z,27.60
2018-02-27T13:46:32.800Z,27.80
2018-02-27T13:49:04.001Z,27.80
2018-02-27T13:51:28.388Z,28.30
2018-02-27T13:53:56.971Z,27.90
2018-02-27T13:56:25.520Z,27.80
2018-02-27T13:58:53.292Z,27.70
2018-02-27T14:01:21.132Z,27.50
2018-02-27T14:03:48.907Z,27.50
2018-02-27T14:06:16.670Z,28.00
2018-02-27T14:08:44.494Z,28.60
2018-02-27T14:11:12.274Z,28.40
2018-02-27T14:13:40.055Z,28.20
2018-02-27T14:16:07.921Z,28.20
2018-02-27T14:18:35.715Z,28.20
2018-02-27T14:21:04.343Z,28.60
2018-02-27T14:23:32.190Z,29.10
2018-02-27T14:25:59.958Z,28.80
2018-02-27T14:28:27.775Z,29.30
2018-02-27T14:30:55.598Z,29.70
2018-02-27T14:33:23.373Z,29.20
2018-02-27T14:35:51.148Z,28.70
2018-02-27T14:38:18.973Z,28.20
2018-02-27T14:40:46.733Z,28.60
2018-02-27T14:43:14.501Z,29.10
2018-02-27T14:45:42.322Z,29.10
2018-02-27T14:48:10.858Z,29.20
2018-02-27T14:50:38.624Z,29.10
2018-02-27T14:53:06.447Z,29.50
2018-02-27T14:55:34.213Z,29.20
2018-02-27T14:58:01.988Z,29.70
2018-02-27T15:00:29.831Z,29.90
2018-02-27T15:02:57.598Z,30.40
2018-02-27T15:05:25.361Z,30.30
2018-02-27T15:07:53.189Z,30.10
2018-02-27T15:10:20.955Z,30.40
2018-02-27T15:12:48.727Z,30.50
2018-02-27T15:15:17.313Z,30.40
2018-02-27T15:17:45.846Z,30.40
2018-02-27T15:20:13.621Z,30.40
2018-02-27T15:22:41.436Z,30.50
2018-02-27T15:25:09.206Z,30.50
2018-02-27T15:27:37.002Z,31.20
2018-02-27T15:30:04.837Z,31.00
2018-02-27T15:32:32.611Z,30.70
2018-02-27T15:35:00.370Z,30.70
2018-02-27T15:37:28.191Z,31.30
2018-02-27T15:39:56.722Z,30.00
2018-02-27T15:42:24.514Z,30.00
2018-02-27T15:44:53.109Z,31.20
2018-02-27T15:47:21.650Z,31.70
2018-02-27T15:49:49.515Z,31.70
2018-02-27T15:52:17.347Z,32.00
2018-02-27T15:54:45.130Z,31.30
2018-02-27T15:57:12.901Z,32.00
2018-02-27T15:59:40.730Z,32.20
2018-02-27T16:02:08.500Z,32.10
2018-02-27T16:04:36.281Z,31.20
2018-02-27T16:07:04.104Z,31.20
2018-02-27T16:09:31.911Z,31.80
2018-02-27T16:11:59.683Z,32.60
2018-02-27T16:14:27.502Z,32.50
2018-02-27T16:16:55.312Z,32.30
2018-02-27T16:19:23.089Z,32.30
2018-02-27T16:21:50.901Z,32.00
2018-02-27T16:24:18.678Z,32.40
2018-02-27T16:26:46.470Z,32.70
2018-02-27T16:29:14.319Z,33.00
2018-02-27T16:31:42.087Z,33.50
2018-02-27T16:34:10.634Z,34.00
2018-02-27T16:36:38.466Z,34.10
2018-02-27T16:39:07.030Z,34.70
2018-02-27T16:41:34.798Z,34.70
2018-02-27T16:44:03.385Z,33.90
2018-02-27T16:46:32.506Z,33.70
2018-02-27T16:49:00.293Z,33.70
2018-02-27T16:51:28.316Z,34.40
2018-02-27T16:53:56.969Z,34.40
2018-02-27T16:56:24.801Z,34.40
2018-02-27T16:58:52.636Z,34.30
2018-02-27T17:01:20.409Z,34.30
2018-02-27T17:03:48.207Z,34.20
2018-02-27T17:06:16.036Z,34.20
2018-02-27T17:08:43.949Z,34.70
2018-02-27T17:11:11.765Z,34.20
2018-02-27T17:13:40.492Z,34.50
2018-02-27T17:16:08.266Z,34.60
2018-02-27T17:18:36.041Z,34.80
2018-02-27T17:21:04.818Z,35.00
2018-02-27T17:23:32.635Z,35.00
2018-02-27T17:26:00.416Z,35.50
2018-02-27T17:28:29.078Z,36.60
2018-02-27T17:30:57.713Z,37.10
2018-02-27T17:33:25.485Z,37.40
2018-02-27T17:35:54.135Z,37.40
2018-02-27T17:38:21.909Z,37.40
2018-02-27T17:40:49.691Z,37.10
2018-02-27T17:43:18.286Z,35.90
2018-02-27T17:45:46.070Z,35.80
2018-02-27T17:48:14.730Z,35.80
2018-02-27T17:50:42.686Z,35.90
2018-02-27T17:53:11.223Z,36.80
2018-02-27T17:55:38.998Z,36.80
2018-02-27T17:58:07.234Z,37.50
2018-02-27T18:00:35.036Z,38.30
2018-02-27T18:03:02.815Z,39.90
2018-02-27T18:05:32.155Z,39.70
2018-02-27T18:08:00.040Z,39.60
2018-02-27T18:10:27.933Z,38.00
2018-02-27T18:12:56.561Z,38.90
2018-02-27T18:15:24.325Z,38.90
2018-02-27T18:17:54.369Z,39.60
2018-02-27T18:20:22.528Z,41.00
2018-02-27T18:22:50.293Z,42.80
2018-02-27T18:25:18.135Z,44.40
2018-02-27T18:27:46.020Z,47.00
2018-02-27T18:30:14.611Z,46.50
2018-02-27T18:32:42.378Z,46.50
2018-02-27T18:35:10.865Z,45.50
2018-02-27T18:37:39.550Z,43.10
2018-02-27T18:40:07.317Z,40.80
2018-02-27T18:42:35.149Z,39.70
2018-02-27T18:45:03.112Z,38.80
2018-02-27T18:47:30.913Z,39.00
2018-02-27T18:49:59.618Z,39.70
2018-02-27T18:52:28.389Z,39.80
2018-02-27T18:54:57.032Z,39.00
2018-02-27T18:57:24.963Z,39.00
2018-02-27T18:59:53.709Z,38.10
2018-02-27T19:02:22.127Z,38.00
2018-02-27T19:04:50.262Z,38.40
2018-02-27T19:07:18.031Z,38.50
2018-02-27T19:09:46.559Z,38.60
2018-02-27T19:12:14.400Z,38.60
2018-02-27T19:14:42.165Z,37.70
2018-02-27T19:17:10.524Z,38.00
2018-02-27T19:19:39.210Z,37.90
2018-02-27T19:22:07.751Z,38.40
2018-02-27T19:24:35.698Z,38.40
2018-02-27T19:27:03.525Z,39.00
2018-02-27T19:29:31.310Z,39.70
2018-02-27T19:31:59.773Z,40.10
2018-02-27T19:34:27.602Z,40.30
2018-02-27T19:36:56.970Z,41.40
2018-02-27T19:39:24.738Z,41.40
2018-02-27T19:41:52.627Z,41.40
2018-02-27T19:44:21.364Z,41.90
2018-02-27T19:46:49.333Z,41.80
2018-02-27T19:49:17.152Z,41.60
2018-02-27T19:51:45.688Z,42.30
2018-02-27T19:54:14.229Z,42.20
2018-02-27T19:56:42.371Z,42.20
2018-02-27T19:59:10.138Z,42.20
2018-02-27T20:01:38.969Z,42.10
2018-02-27T20:04:06.804Z,42.10
2018-02-27T20:06:35.641Z,42.10
2018-02-27T20:09:03.433Z,42.40
2018-02-27T20:11:31.246Z,42.40
2018-02-27T20:14:01.994Z,42.20
2018-02-27T20:16:29.762Z,41.90
2018-02-27T20:18:57.597Z,42.40
2018-02-27T20:21:25.373Z,42.30
2018-02-27T20:23:58.818Z,42.10
2018-02-27T20:26:27.461Z,42.60
2018-02-27T20:29:00.965Z,42.50
2018-02-27T20:31:30.895Z,43.10
2018-02-27T20:33:58.738Z,43.00
2018-02-27T20:36:26.560Z,43.00
2018-02-27T20:38:59.906Z,43.10
2018-02-27T20:41:27.739Z,42.80
2018-02-27T20:43:55.512Z,42.60
2018-02-27T20:46:23.734Z,42.60
2018-02-27T20:48:51.657Z,42.70
2018-02-27T20:51:19.853Z,42.70
2018-02-27T20:53:47.773Z,42.60
2018-02-27T20:56:15.639Z,42.50
2018-02-27T20:58:43.434Z,42.90
2018-02-27T21:01:11.200Z,42.90
2018-02-27T21:03:39.076Z,43.10
2018-02-27T21:06:08.105Z,42.80
2018-02-27T21:08:35.912Z,42.70
2018-02-27T21:11:03.770Z,43.20
2018-02-27T21:13:31.590Z,43.30
2018-02-27T21:16:00.063Z,43.80
2018-02-27T21:18:27.902Z,43.80
2018-02-27T21:20:55.708Z,43.90
2018-02-27T21:23:23.498Z,44.30
2018-02-27T21:25:51.334Z,44.80
2018-02-27T21:28:19.969Z,45.50
2018-02-27T21:30:48.522Z,45.80
2018-02-27T21:33:16.364Z,45.80
2018-02-27T21:35:44.138Z,46.30
2018-02-27T21:38:13.519Z,46.60
2018-02-27T21:40:41.357Z,47.10
2018-02-27T21:43:09.159Z,47.70
2018-02-27T21:45:36.948Z,48.30
2018-02-27T21:48:04.836Z,48.20
2018-02-27T21:50:32.729Z,48.40
2018-02-27T21:53:00.566Z,48.70
2018-02-27T21:55:29.177Z,47.20
2018-02-27T21:57:56.998Z,47.10
2018-02-27T22:00:25.570Z,46.20
2018-02-27T22:02:53.406Z,46.20
2018-02-27T22:05:21.884Z,47.10
2018-02-27T22:07:50.569Z,46.40
2018-02-27T22:10:18.393Z,46.80
2018-02-27T22:12:46.244Z,46.70
2018-02-27T22:15:14.786Z,46.70
2018-02-27T22:17:42.622Z,46.70
2018-02-27T22:20:10.558Z,46.80
2018-02-27T22:22:38.376Z,46.90
2018-02-27T22:25:06.552Z,46.80
2018-02-27T22:27:35.131Z,46.90
2018-02-27T22:30:02.915Z,46.90
2018-02-27T22:32:30.741Z,47.60
2018-02-27T22:34:58.761Z,48.10
2018-02-27T22:37:27.303Z,49.20
2018-02-27T22:39:55.182Z,49.20
2018-02-27T22:42:22.957Z,49.90
2018-02-27T22:44:51.508Z,49.80
2018-02-27T22:47:19.344Z,49.80
2018-02-27T22:49:47.119Z,50.00
2018-02-27T22:52:15.760Z,50.30
2018-02-27T22:54:44.396Z,52.30
2018-02-27T22:57:12.251Z,52.30
2018-02-27T22:59:40.039Z,52.80
2018-02-27T23:02:07.873Z,53.50
2018-02-27T23:04:36.429Z,53.50
2018-02-27T23:07:04.195Z,53.50
2018-02-27T23:09:32.044Z,54.20
2018-02-27T23:11:59.819Z,54.40
2018-02-27T23:14:27.596Z,53.90
2018-02-27T23:16:55.484Z,53.80
2018-02-27T23:19:23.262Z,53.00
2018-02-27T23:21:51.035Z,52.50
2018-02-27T23:37:54.415Z,53.80
2018-02-27T23:40:22.954Z,53.40
2018-02-27T23:42:50.715Z,53.50
2018-02-27T23:45:18.560Z,53.60
2018-02-27T23:47:46.323Z,54.40
2018-02-27T23:50:14.086Z,55.40
2018-02-27T23:52:41.898Z,56.50
2018-02-27T23:55:09.658Z,57.60
2018-02-27T23:57:37.410Z,58.30
